KSEG/SEG METAR and TAF weather

Enter ICAO airport designator
Station Type Date Time Source
KSEG METAR 2019/10/18 10:53 UTC NOAA

KSEG 181053Z AUTO 32009KT 10SM OVC041 09/02 A2989 RMK AO2 SLP123 T00940022


Station Type Date Time Source
KSEG Decoded METAR 2019/10/18 10:53 UTC NOAA

SELINSGROVE PENN VALLEY AIRPORT , PA, United States (KSEG) 40-49N 076-52W 134M
Oct 18, 2019 - 06:53 AM EDT / 2019.10.18 1053 UTC
Wind: from the NW (320 degrees) at 10 MPH (9 KT):0
Visibility: 10 mile(s):0
Sky conditions: overcast
Temperature: 48.9 F (9.4 C)
Dew Point: 36.0 F (2.2 C)
Relative Humidity: 60%
Pressure (altimeter): 29.89 in. Hg (1012 hPa)
ob: KSEG 181053Z AUTO 32009KT 10SM OVC041 09/02 A2989 RMK AO2 SLP123 T00940022
cycle: 11

Station Type Date Time Source
KSEG TAF UTC NOAA

Error!

Example: see airport list